Terminal Aerodrome Forecast
Issued by NWS

Home | Current Version | Previous Version | Text Only | Print | Product List | Glossary On
Versions: 1 2 3 4 5 6 7 8 9 10 11 12 13 14 15 16
477
FTUS44 KCRP 171740
TAFLRD
TAF
KLRD 171740Z 1718/1818 VRB03KT P6SM OVC006
     FM172100 10006KT P6SM BKN009 OVC020
     FM180600 03004KT 5SM BR OVC005=

USA.gov is the U.S. government's official web portal to all federal, state and local government web resources and services.